This is the latest recevied weather packets stored in our database for station/object W7BL. If no packets are shown the sender has not sent any weather packets the latest 10 day(s).
| Time | Temp. | Humidity | Pressure | Rain* | Wind** | Luminosity | Snow |
|---|---|---|---|---|---|---|---|
| 1778094280 | 22.78° C | 39% | - | 0 mm | - | - | - |
| 1778093977 | 22.78° C | 40% | - | 0 mm | - | - | - |
| 1778093674 | 22.78° C | 39% | - | 0 mm | - | - | - |
| 1778093371 | 22.22° C | 39% | - | 0 mm | - | - | - |
| 1778093068 | 22.22° C | 39% | - | 0 mm | - | - | - |
| 1778092765 | 22.78° C | 38% | - | 0 mm | - | - | - |
| 1778092460 | 22.78° C | 39% | - | 0 mm | - | - | - |
| 1778092158 | 22.22° C | 40% | - | 0 mm | - | - | - |
| 1778091855 | 21.67° C | 40% | - | 0 mm | - | - | - |
| 1778091552 | 21.67° C | 40% | - | 0 mm | - | - | - |
| 1778091250 | 22.22° C | 39% | - | 0 mm | - | - | - |
| 1778090947 | 21.11° C | 41% | - | 0 mm | - | - | - |
| 1778090643 | 21.11° C | 40% | - | 0 mm | - | - | - |
| 1778090340 | 21.67° C | 40% | - | 0 mm | - | - | - |
| 1778090036 | 21.11° C | 41% | - | 0 mm | - | - | - |
| 1778089733 | 21.11° C | 42% | - | 0 mm | - | - | - |
| 1778089431 | 21.11° C | 42% | - | 0 mm | - | - | - |
| 1778089128 | 21.11° C | 44% | - | 0 mm | - | - | - |
| 1778088825 | 21.67° C | 42% | - | 0 mm | - | - | - |
| 1778088522 | 20.56° C | 44% | - | 0 mm | - | - | - |
| 1778088218 | 21.11° C | 43% | - | 0 mm | - | - | - |
| 1778087916 | 20.56° C | 46% | - | 0 mm | - | - | - |
| 1778087613 | 20° C | 45% | - | 0 mm | - | - | - |
| 1778087311 | 21.11° C | 45% | - | 0 mm | - | - | - |
| 1778087006 | 20.56° C | 46% | - | 0 mm | - | - | - |
* Rain latest hour (hover to see other rain measurements)
** Current wind speed in m/s (hover to see current wind gust speed)